Beecher City, IL (62414)

9:02 AM CDT on September 02, 2014 (GMT -0500)
St. Elmo, Ilinois | Change Station
CLOSE
Current Station
Personal Weather Station
Location: St. Elmo, IL
Elevation: 620 ft
Nearby Weather Stations

Elev 620 ft 39.02 °N, 88.83 °W | Updated 10 minutes ago

Overcast
Overcast
69.0 °F
Feels Like 69.0 °F
N
0.0
Wind Variable Wind from SW
Gusts 1.0 mph

Today
High -- | Low -- °F
--% Chance of Precip.
Yesterday
High -- | Low -- °F
Precip. -- in
6:24 AM 7:24 PM
First Quarter, 51% visible
Pressure 29.94 in
Visibility 10.0 miles
Clouds Scattered Clouds 600 ft
Overcast 4300 ft
Dew Point 69 °F
Humidity 98%
Rainfall 0.04 in
Snow Depth Not available.
UV 1 out of 12
Pollen 6.50 out of 12
Air Quality Not available.
Flu Activity Not available.
METAR K1H2 021355Z AUTO 16006KT 10SM RA SCT006 OVC043 21/19 A2994 RMK AO2 T02100191

More Conditions Fewer Conditions

Pressure 29.94 in
Visibility 10.0 miles
Clouds Scattered Clouds 600 ft
Overcast 4300 ft
Dew Point 69 °F
Humidity 98%
Rainfall 0.04 in
Snow Depth Not available.
UV 1 out of 12
Pollen 6.50 out of 12
Air Quality Not available.
Flu Activity Not available.
METAR K1H2 021355Z AUTO 16006KT 10SM RA SCT006 OVC043 21/19 A2994 RMK AO2 T02100191

More Conditions Fewer Conditions

10-Day Weather Forecast

Almanac

Astronomy

Sep. 02, 2014 Rise Set
Actual Time 6:24 AM CDT 7:24 PM CDT
Civil Twilight 5:57 AM CDT 7:51 PM CDT
Nautical Twilight 5:24 AM CDT 8:24 PM CDT
Astronomical Twilight 4:51 AM CDT 8:57 PM CDT
Moon 2:06 PM CDT No Moon Set
Length of Visible Light 13h 54m
Length of Day
12h 59m
Tomorrow will be 2m 28s shorter.
First Quarter, 51% of the Moon is Illuminated
Today
First Quarter
Sep 8
Full
Sep 15
Last Quarter
Sep 24
New
Oct 1
First Quarter

Today's Extremes

State Highs State Lows

Community

WunderPhotos

Upload Photos

1,749,670 photos uploaded!

WunderBlogs® & News

Nearby

Snow Depth

Station Depth Elevation
No new snow has been reported.

Earthquake Activity

City Distance Mag. Time & Date
No recent earthquake activity has been reported nearby.
Minimum magnitude displayed is 2.5.

Coastal Water Temperatures

Place Temperature
No Stations Reporting

Nearby Weather Stations